Time;durP1;ratioP1;P1;durP2;ratioP2;P2;SDS_P1;SDS_P2;PMS_P1;PMS_P2;Temp;Humidity;BMP_temperature;BMP_pressure;BME280_temperature;BME280_humidity;BME280_pressure;Samples;Min_cycle;Max_cycle;Signal;HPM_P1;HPM_P2
2022/04/20 00:00:35;;;;;;;7.53;4.90;;;;;;;6.38;72.58;98749.84;1729698;82;21108;-73
2022/04/20 00:03:27;;;;;;;7.45;4.87;;;;;;;6.33;72.39;98748.84;1686397;82;21013;-74
2022/04/20 00:06:14;;;;;;;9.63;4.22;;;;;;;6.27;72.70;98746.53;1725980;82;21009;-74
2022/04/20 00:08:41;;;;;;;7.08;4.50;;;;;;;6.28;72.90;98751.70;1729893;82;21472;-73
2022/04/20 00:11:09;;;;;;;6.92;4.95;;;;;;;6.30;72.87;98752.20;1704515;82;21573;-73
2022/04/20 00:13:37;;;;;;;6.90;5.03;;;;;;;6.32;72.77;98757.36;1708804;82;21044;-72
2022/04/20 00:16:07;;;;;;;14.43;6.53;;;;;;;6.35;72.69;98754.00;1708520;82;21482;-73
2022/04/20 00:18:35;;;;;;;6.97;4.72;;;;;;;6.37;72.61;98755.05;1719465;81;21052;-72
2022/04/20 00:21:03;;;;;;;6.75;4.58;;;;;;;6.37;72.52;98760.52;1711986;82;21046;-72
2022/04/20 00:23:31;;;;;;;5.62;4.05;;;;;;;6.35;72.50;98760.05;1707741;82;22155;-74
2022/04/20 00:25:59;;;;;;;5.90;4.95;;;;;;;6.36;72.37;98760.29;1711318;82;21230;-72
2022/04/20 00:28:28;;;;;;;7.85;5.42;;;;;;;6.36;72.26;98766.58;1712735;82;21117;-72
2022/04/20 00:30:56;;;;;;;6.30;4.87;;;;;;;6.36;72.17;98766.58;1711756;82;21054;-72
2022/04/20 00:33:28;;;;;;;9.70;5.45;;;;;;;6.37;72.06;98767.37;1707923;82;21069;-73
2022/04/20 00:35:56;;;;;;;6.58;4.45;;;;;;;6.36;71.88;98767.95;1712363;82;21029;-72
2022/04/20 00:38:29;;;;;;;6.83;4.45;;;;;;;6.36;71.90;98767.13;1713417;82;21487;-70
2022/04/20 00:40:56;;;;;;;8.53;5.10;;;;;;;6.37;71.81;98781.05;1714703;82;21502;-72
2022/04/20 00:43:28;;;;;;;6.65;5.08;;;;;;;6.37;71.77;98772.29;1711346;82;21507;-71
2022/04/20 00:46:03;;;;;;;7.80;5.08;;;;;;;6.38;71.80;98778.00;1712569;82;21010;-73
2022/04/20 00:48:31;;;;;;;8.33;5.30;;;;;;;6.41;71.61;98771.12;1707176;82;21490;-73
2022/04/20 00:50:58;;;;;;;10.38;5.67;;;;;;;6.39;71.42;98775.53;1691726;82;21265;-71
2022/04/20 00:53:31;;;;;;;8.05;5.12;;;;;;;6.38;71.46;98783.47;1709248;82;21100;-72
2022/04/20 00:55:58;;;;;;;7.95;5.60;;;;;;;6.36;71.39;98779.45;1709384;82;21007;-73
2022/04/20 00:58:26;;;;;;;8.13;5.15;;;;;;;6.36;71.35;98778.89;1710722;82;20983;-73
2022/04/20 01:00:56;;;;;;;9.08;6.00;;;;;;;6.36;71.37;98773.42;1708660;82;21432;-74
2022/04/20 01:03:25;;;;;;;10.40;6.10;;;;;;;6.39;71.43;98788.39;1691575;82;21834;-74
2022/04/20 01:06:10;;;;;;;14.20;6.62;;;;;;;6.40;71.23;98782.61;1712034;82;21105;-71
2022/04/20 01:08:47;;;;;;;12.93;7.08;;;;;;;6.42;70.96;98779.56;1687982;82;20999;-74
2022/04/20 01:11:38;;;;;;;10.55;6.53;;;;;;;6.42;70.95;98776.83;1696325;83;21597;-71
2022/04/20 01:14:28;;;;;;;9.83;5.83;;;;;;;6.39;70.94;98785.11;1711834;82;21279;-72
2022/04/20 01:17:15;;;;;;;8.68;4.50;;;;;;;6.38;70.85;98790.89;1651933;84;22307;-72
2022/04/20 01:23:14;;;;;;;7.83;5.15;;;;;;;6.36;70.85;98784.91;1670396;85;21118;-76
2022/04/20 01:26:07;;;;;;;6.70;4.90;;;;;;;6.36;70.77;98788.47;1674418;85;21102;-72
2022/04/20 01:28:41;;;;;;;9.03;5.67;;;;;;;6.36;70.63;98786.28;1670521;85;21070;-74
2022/04/20 01:31:22;;;;;;;8.45;6.03;;;;;;;6.36;70.63;98787.10;1672363;85;21570;-71
2022/04/20 01:33:51;;;;;;;7.55;5.28;;;;;;;6.35;70.41;98783.31;1673657;84;21022;-74
2022/04/20 01:36:18;;;;;;;13.13;5.45;;;;;;;6.32;70.37;98785.54;1674753;85;21061;-73
2022/04/20 01:38:47;;;;;;;8.70;5.87;;;;;;;6.28;70.50;98785.08;1674706;85;21023;-71
2022/04/20 01:41:19;;;;;;;9.85;6.37;;;;;;;6.27;70.57;98784.29;1671567;85;21058;-73
2022/04/20 01:43:48;;;;;;;8.18;5.83;;;;;;;6.28;70.55;98781.79;1656196;85;21950;-74
2022/04/20 01:46:21;;;;;;;9.15;5.90;;;;;;;6.28;70.38;98783.71;1695720;84;21015;-71
2022/04/20 01:48:50;;;;;;;9.05;5.65;;;;;;;6.26;70.27;98786.76;1694687;84;21134;-72
2022/04/20 01:51:47;;;;;;;8.33;5.78;;;;;;;6.26;70.19;98781.86;1677855;85;21093;-73
2022/04/20 01:54:21;;;;;;;8.10;5.83;;;;;;;6.24;70.05;98776.70;1679097;85;21061;-74
2022/04/20 01:56:51;;;;;;;7.75;4.90;;;;;;;6.22;70.14;98780.30;1654153;85;21248;-70
2022/04/20 01:59:37;;;;;;;8.85;5.65;;;;;;;6.22;70.25;98781.67;1658147;85;21018;-72
2022/04/20 02:02:38;;;;;;;10.45;6.10;;;;;;;6.23;70.08;98781.91;1646763;86;21074;-72
2022/04/20 02:05:20;;;;;;;9.43;5.28;;;;;;;6.24;70.00;98782.18;1638781;85;21051;-72
2022/04/20 02:07:47;;;;;;;6.78;5.08;;;;;;;6.23;70.00;98779.17;1675604;85;21055;-75
2022/04/20 02:10:27;;;;;;;14.68;6.03;;;;;;;6.24;70.06;98776.70;1693229;84;21073;-70
2022/04/20 02:13:03;;;;;;;10.00;5.67;;;;;;;6.24;70.03;98782.18;1661582;86;21011;-73
2022/04/20 02:15:34;;;;;;;13.80;6.60;;;;;;;6.24;70.16;98784.91;1682234;83;21053;-72
2022/04/20 02:18:01;;;;;;;10.50;5.60;;;;;;;6.26;70.21;98776.39;1694453;84;21064;-72
2022/04/20 02:20:37;;;;;;;10.70;5.53;;;;;;;6.27;70.14;98787.58;1644420;86;21052;-73
2022/04/20 02:23:06;;;;;;;8.05;5.08;;;;;;;6.23;70.21;98784.64;1667922;85;21023;-74
2022/04/20 02:25:38;;;;;;;9.40;5.50;;;;;;;6.23;70.17;98787.96;1666751;85;21126;-75
2022/04/20 02:28:07;;;;;;;11.55;6.30;;;;;;;6.20;70.16;98787.45;1650071;85;21046;-73
2022/04/20 02:30:34;;;;;;;10.43;5.33;;;;;;;6.19;70.10;98796.77;1669982;85;21561;-72
2022/04/20 02:33:01;;;;;;;9.85;5.45;;;;;;;6.17;70.18;98792.73;1668188;85;21076;-73
2022/04/20 02:35:30;;;;;;;12.33;5.45;;;;;;;6.18;70.25;98794.33;1669132;85;21026;-74
2022/04/20 02:38:01;;;;;;;8.73;5.28;;;;;;;6.19;70.21;98791.87;1674575;85;21102;-72
2022/04/20 02:40:30;;;;;;;10.55;5.33;;;;;;;6.19;70.17;98780.92;1674070;85;21038;-72
2022/04/20 02:43:00;;;;;;;10.15;4.28;;;;;;;6.21;70.13;98789.61;1671213;85;21035;-75
2022/04/20 02:45:30;;;;;;;10.10;4.85;;;;;;;6.19;70.05;98789.92;1730011;82;20995;-70
2022/04/20 02:48:01;;;;;;;7.03;4.20;;;;;;;6.18;69.83;98792.97;1727956;81;21324;-71
2022/04/20 02:50:30;;;;;;;5.47;3.67;;;;;;;6.13;69.81;98789.80;1731584;82;21012;-75
2022/04/20 02:53:01;;;;;;;7.78;4.50;;;;;;;6.11;69.83;98796.70;1726412;82;21040;-71
2022/04/20 02:55:28;;;;;;;8.33;4.47;;;;;;;6.11;69.92;98795.34;1728791;82;20992;-74
2022/04/20 02:57:56;;;;;;;10.63;4.87;;;;;;;6.12;69.93;98794.20;1729240;82;21066;-72
2022/04/20 03:00:24;;;;;;;5.17;3.62;;;;;;;6.13;69.96;98791.16;1729846;82;22141;-74
2022/04/20 03:02:56;;;;;;;;;;;;;;;6.13;69.96;98787.61;1732714;81;21082;-72
2022/04/20 03:05:24;;;;;;;8.63;4.92;;;;;;;6.12;69.98;98781.90;1729803;82;20171;-72
2022/04/20 03:07:53;;;;;;;9.03;5.25;;;;;;;6.08;69.84;98789.36;1708676;82;21074;-74
2022/04/20 03:10:25;;;;;;;8.53;5.10;;;;;;;6.06;69.77;98790.22;1709455;82;21000;-71
2022/04/20 03:13:18;;;;;;;6.83;4.62;;;;;;;6.02;69.60;98789.17;1684397;82;21028;-73
2022/04/20 03:15:49;;;;;;;12.40;5.50;;;;;;;6.00;69.66;98798.81;1648431;85;21015;-72
2022/04/20 03:18:16;;;;;;;6.65;4.40;;;;;;;5.99;69.69;98797.20;1682425;85;21038;-73
2022/04/20 03:20:43;;;;;;;7.97;5.08;;;;;;;6.00;69.78;98800.18;1672267;84;21589;-73
2022/04/20 03:23:14;;;;;;;6.87;4.85;;;;;;;6.01;69.74;98801.79;1671647;85;21027;-73
2022/04/20 03:25:41;;;;;;;7.08;4.62;;;;;;;6.01;69.61;98808.62;1668978;85;21135;-71
2022/04/20 03:28:12;;;;;;;6.08;4.30;;;;;;;5.99;69.51;98806.20;1719050;82;21038;-74
2022/04/20 03:30:39;;;;;;;6.50;4.35;;;;;;;5.96;69.43;98804.91;1678295;83;21052;-75
2022/04/20 03:33:09;;;;;;;6.28;3.90;;;;;;;5.95;69.37;98803.84;1703093;83;21049;-72
2022/04/20 03:35:38;;;;;;;6.83;4.10;;;;;;;5.94;69.39;98809.05;1721352;81;21052;-72
2022/04/20 03:38:07;;;;;;;5.67;3.92;;;;;;;5.94;69.32;98809.05;1717873;81;21147;-73
2022/04/20 03:40:33;;;;;;;5.55;4.22;;;;;;;5.96;69.15;98813.11;1720291;83;21049;-71
2022/04/20 03:43:02;;;;;;;6.62;4.15;;;;;;;5.97;69.17;98807.88;1717017;83;21032;-74
2022/04/20 03:45:30;;;;;;;5.87;4.45;;;;;;;5.98;69.01;98803.23;1720061;83;21046;-71
2022/04/20 03:47:57;;;;;;;7.55;3.67;;;;;;;5.98;68.91;98807.33;1724235;83;21036;-72
2022/04/20 03:50:26;;;;;;;7.42;3.70;;;;;;;5.96;68.70;98803.53;1719858;83;21060;-74
2022/04/20 03:52:54;;;;;;;4.42;3.47;;;;;;;5.97;68.87;98805.72;1704021;83;21007;-72
2022/04/20 03:55:23;;;;;;;7.97;4.33;;;;;;;6.00;68.84;98798.81;1704133;83;21490;-72
2022/04/20 03:57:50;;;;;;;6.37;4.37;;;;;;;6.01;68.67;98805.89;1720039;83;21038;-71
2022/04/20 04:00:20;;;;;;;6.47;4.40;;;;;;;6.03;68.77;98809.95;1718554;83;21057;-71
2022/04/20 04:02:50;;;;;;;9.00;5.60;;;;;;;6.06;68.57;98812.10;1719061;82;21079;-73
2022/04/20 04:05:25;;;;;;;8.38;4.92;;;;;;;6.09;68.58;98801.09;1710959;82;21127;-71
2022/04/20 04:07:56;;;;;;;5.58;4.05;;;;;;;6.12;68.62;98801.05;1704367;82;21039;-72
2022/04/20 04:10:28;;;;;;;9.33;4.40;;;;;;;6.15;68.42;98799.06;1717189;83;21092;-72
2022/04/20 04:12:57;;;;;;;6.87;4.40;;;;;;;6.16;68.11;98796.02;1720903;83;21055;-73
2022/04/20 04:15:25;;;;;;;8.75;3.83;;;;;;;6.15;68.09;98796.33;1718460;83;21038;-74
2022/04/20 04:18:01;;;;;;;5.05;3.98;;;;;;;6.15;68.08;98802.61;1719610;81;21062;-70
2022/04/20 04:20:30;;;;;;;7.75;4.15;;;;;;;6.07;67.80;98805.50;1728844;82;21022;-70
2022/04/20 04:23:01;;;;;;;5.40;3.70;;;;;;;6.05;68.13;98806.39;1708989;82;21011;-71
2022/04/20 04:25:40;;;;;;;6.42;4.28;;;;;;;6.06;68.20;98809.36;1715488;82;21070;-71
2022/04/20 04:28:07;;;;;;;7.85;4.28;;;;;;;6.10;68.07;98812.30;1726898;81;21250;-73
2022/04/20 04:30:35;;;;;;;6.60;3.90;;;;;;;6.15;68.17;98812.19;1729778;82;21049;-73
2022/04/20 04:33:05;;;;;;;5.58;3.92;;;;;;;6.23;67.93;98814.73;1726188;82;21024;-72
2022/04/20 04:35:34;;;;;;;6.50;4.80;;;;;;;6.29;67.89;98810.79;1732746;82;21560;-72
2022/04/20 04:38:02;;;;;;;8.10;5.03;;;;;;;6.33;67.74;98815.88;1730322;82;21062;-73
2022/04/20 04:40:33;;;;;;;7.53;4.10;;;;;;;6.39;67.52;98822.60;1729410;82;21661;-73
2022/04/20 04:43:05;;;;;;;5.95;3.98;;;;;;;6.44;67.45;98819.75;1730232;82;21009;-73
2022/04/20 04:48:37;;;;;;;5.87;3.90;;;;;;;6.53;67.11;98820.64;1730009;82;21073;-71
2022/04/20 04:51:05;;;;;;;9.45;5.00;;;;;;;6.56;66.73;98821.39;1729227;82;21030;-72
2022/04/20 04:53:33;;;;;;;9.23;4.85;;;;;;;6.58;66.75;98816.39;1729490;82;21153;-72
2022/04/20 04:56:04;;;;;;;6.25;4.60;;;;;;;6.61;66.40;98814.16;1709337;82;21036;-72
2022/04/20 04:58:37;;;;;;;5.65;4.20;;;;;;;6.57;66.22;98820.81;1729797;82;21169;-73
2022/04/20 05:01:06;;;;;;;7.67;5.47;;;;;;;6.55;66.21;98823.07;1726654;82;21040;-75
2022/04/20 05:03:35;;;;;;;9.85;4.67;;;;;;;6.57;66.33;98820.81;1730063;82;21022;-72
2022/04/20 05:06:01;;;;;;;9.13;5.15;;;;;;;6.55;66.28;98823.07;1729564;82;21151;-74
2022/04/20 05:08:50;;;;;;;7.75;5.05;;;;;;;6.56;66.20;98819.20;1731272;82;20981;-72
2022/04/20 05:11:20;;;;;;;8.15;4.92;;;;;;;6.57;66.12;98827.10;1705506;83;21586;-72
2022/04/20 05:13:50;;;;;;;10.35;5.25;;;;;;;6.59;66.34;98828.16;1704304;82;21497;-71
2022/04/20 05:16:22;;;;;;;8.48;5.22;;;;;;;6.62;66.44;98826.74;1730141;82;21038;-72
2022/04/20 05:18:51;;;;;;;9.08;5.37;;;;;;;6.67;66.13;98837.57;1707988;82;21481;-72
2022/04/20 05:21:42;;;;;;;8.28;4.85;;;;;;;6.68;65.96;98839.18;1731474;82;21063;-74
2022/04/20 05:24:35;;;;;;;6.80;4.95;;;;;;;6.69;65.95;98842.97;1726412;82;21005;-72
2022/04/20 05:27:04;;;;;;;10.15;5.62;;;;;;;6.72;66.05;98843.48;1708075;82;21598;-74
2022/04/20 05:29:35;;;;;;;7.25;4.92;;;;;;;6.79;66.04;98837.80;1729153;82;20994;-70
2022/04/20 05:32:08;;;;;;;10.88;6.35;;;;;;;6.89;65.82;98842.80;1728966;82;20998;-72
2022/04/20 05:34:37;;;;;;;8.85;6.05;;;;;;;6.91;65.78;98845.45;1730104;82;21496;-74
2022/04/20 05:42:40;;;;;;;8.90;5.10;;;;;;;7.13;65.90;98843.03;1728229;82;21022;-76
2022/04/20 05:45:11;;;;;;;10.38;5.75;;;;;;;7.21;65.44;98847.74;1730002;82;21582;-72
2022/04/20 05:48:12;;;;;;;8.58;5.70;;;;;;;7.21;65.12;98849.11;1662332;85;21091;-75
2022/04/20 05:50:45;;;;;;;8.43;5.22;;;;;;;7.22;65.11;98856.20;1720371;81;21022;-74
2022/04/20 05:53:14;;;;;;;8.23;5.37;;;;;;;7.29;65.03;98855.20;1708964;82;21293;-72
2022/04/20 05:55:45;;;;;;;10.32;6.03;;;;;;;7.34;64.81;98857.54;1736608;81;21439;-75
2022/04/20 05:58:18;;;;;;;7.78;5.42;;;;;;;7.36;64.77;98861.60;1672695;83;21112;-74
2022/04/20 06:00:47;;;;;;;8.90;5.87;;;;;;;7.41;64.58;98861.47;1709680;82;21031;-75
2022/04/20 06:03:26;;;;;;;7.83;5.15;;;;;;;7.47;64.37;98861.34;1704312;83;21117;-73
2022/04/20 06:05:56;;;;;;;8.78;5.65;;;;;;;7.49;64.21;98866.73;1664917;83;21517;-74
2022/04/20 06:08:26;;;;;;;7.80;5.60;;;;;;;7.50;64.11;98871.66;1746391;80;21056;-76
2022/04/20 06:11:05;;;;;;;8.25;5.65;;;;;;;7.49;64.20;98868.10;1714457;82;21138;-74
2022/04/20 06:13:33;;;;;;;10.93;6.17;;;;;;;7.52;63.79;98871.58;1712913;81;21488;-71
2022/04/20 06:16:07;;;;;;;9.70;6.10;;;;;;;7.54;63.89;98872.08;1730135;81;21122;-73
2022/04/20 06:18:42;;;;;;;8.78;5.75;;;;;;;7.58;63.68;98870.89;1720177;81;20996;-74
2022/04/20 06:21:17;;;;;;;10.32;5.92;;;;;;;7.63;63.53;98876.80;1733711;81;21551;-71
2022/04/20 06:23:54;;;;;;;12.50;6.22;;;;;;;7.64;63.41;98865.50;1733007;81;20998;-73
2022/04/20 06:26:29;;;;;;;10.85;6.00;;;;;;;7.65;63.22;98859.47;1694076;82;20982;-74
2022/04/20 06:29:16;;;;;;;10.10;6.90;;;;;;;7.64;63.51;98868.25;1730871;81;21058;-72
2022/04/20 06:31:51;;;;;;;8.63;5.45;;;;;;;7.66;63.40;98870.67;1730229;81;21485;-74
2022/04/20 06:34:28;;;;;;;7.90;5.03;;;;;;;7.65;63.37;98859.47;1735196;80;21018;-72
2022/04/20 06:37:05;;;;;;;10.13;5.60;;;;;;;7.59;63.09;98862.90;1713498;81;21945;-73
2022/04/20 06:39:41;;;;;;;14.00;5.92;;;;;;;7.50;63.46;98869.73;1715790;81;21128;-73
2022/04/20 06:42:22;;;;;;;7.33;5.20;;;;;;;7.49;63.73;98873.59;1729103;81;21560;-73
2022/04/20 06:44:54;;;;;;;11.48;6.17;;;;;;;7.59;63.95;98874.45;1718756;81;21058;-73
2022/04/20 06:47:35;;;;;;;16.27;6.07;;;;;;;7.71;63.93;98880.13;1738312;81;21060;-70
2022/04/20 06:50:22;;;;;;;9.65;6.12;;;;;;;7.81;63.75;98864.53;1738143;81;21612;-77
2022/04/20 06:58:31;;;;;;;9.23;5.90;;;;;;;7.98;62.66;98856.92;1670550;83;21075;-73
2022/04/20 07:01:06;;;;;;;10.28;6.55;;;;;;;7.99;62.66;98857.15;1722053;80;21017;-71
2022/04/20 07:03:51;;;;;;;10.20;5.62;;;;;;;8.01;62.56;98858.47;1744001;81;21770;-73
2022/04/20 07:06:38;;;;;;;10.00;5.92;;;;;;;8.07;62.84;98852.83;1731589;81;21092;-75
2022/04/20 07:09:17;;;;;;;10.05;6.30;;;;;;;8.03;62.34;98851.28;1707775;83;21593;-76
2022/04/20 07:11:48;;;;;;;11.88;5.85;;;;;;;8.07;62.48;98851.45;1668633;81;20998;-72
2022/04/20 07:14:16;;;;;;;8.45;5.58;;;;;;;8.13;62.61;98846.05;1750979;81;21017;-73
2022/04/20 07:16:42;;;;;;;7.83;6.15;;;;;;;8.20;62.51;98857.37;1751162;81;21687;-70
2022/04/20 07:19:17;;;;;;;;;;;;;;;8.22;62.03;98859.80;1737717;81;21548;-72
2022/04/20 07:22:09;;;;;;;9.30;5.72;;;;;;;8.22;61.78;98859.21;1700616;82;20170;-74
2022/04/20 07:24:45;;;;;;;9.83;6.87;;;;;;;8.15;61.92;98861.05;1692081;83;21078;-71
2022/04/20 07:27:20;;;;;;;9.60;6.42;;;;;;;8.13;62.14;98863.33;1677350;83;21056;-74
2022/04/20 07:30:03;;;;;;;11.43;5.17;;;;;;;8.13;62.01;98859.77;1670453;83;22935;-74
2022/04/20 07:32:59;;;;;;;8.53;5.65;;;;;;;8.15;62.12;98854.20;1677135;84;21001;-71
2022/04/20 07:35:29;;;;;;;15.18;5.97;;;;;;;8.15;62.16;98843.80;1676643;82;21548;-72
2022/04/20 07:37:57;;;;;;;13.10;6.55;;;;;;;8.15;62.11;98848.70;1668284;84;21016;-71
2022/04/20 07:40:44;;;;;;;9.15;6.03;;;;;;;8.11;62.12;98845.56;1672044;84;21091;-70
2022/04/20 07:43:26;;;;;;;8.13;5.40;;;;;;;8.06;62.45;98836.92;1670304;85;22070;-73
2022/04/20 07:45:55;;;;;;;9.78;6.75;;;;;;;8.11;62.17;98833.21;1669601;85;21454;-71
2022/04/20 07:48:27;;;;;;;8.10;6.33;;;;;;;8.08;62.36;98826.44;1649496;85;20989;-71
2022/04/20 07:51:05;;;;;;;8.88;5.95;;;;;;;8.10;62.45;98833.77;1674625;84;21047;-71
2022/04/20 07:53:50;;;;;;;9.30;6.03;;;;;;;8.10;62.35;98831.61;1667854;85;21069;-72
2022/04/20 07:56:23;;;;;;;16.62;6.17;;;;;;;8.10;62.57;98830.23;1670993;85;21220;-71
2022/04/20 07:58:53;;;;;;;12.25;6.25;;;;;;;8.12;62.65;98832.10;1667423;85;21063;-71
2022/04/20 08:01:25;;;;;;;9.10;5.90;;;;;;;8.16;62.80;98835.80;1670130;85;21059;-70
2022/04/20 08:03:58;;;;;;;9.78;6.42;;;;;;;8.19;62.42;98834.37;1670938;85;21613;-70
2022/04/20 08:06:33;;;;;;;7.87;5.55;;;;;;;8.21;62.93;98833.46;1665525;84;21083;-72
2022/04/20 08:09:02;;;;;;;11.75;6.05;;;;;;;8.20;62.76;98830.48;1670308;85;21052;-73
2022/04/20 08:11:31;;;;;;;9.08;6.72;;;;;;;8.21;62.58;98815.06;1667605;85;21083;-74
2022/04/20 08:14:09;;;;;;;9.25;5.92;;;;;;;8.16;62.98;98816.59;1671020;85;21607;-73
2022/04/20 08:16:48;;;;;;;8.30;5.12;;;;;;;8.16;62.96;98827.02;1666944;85;21053;-75
2022/04/20 08:19:29;;;;;;;8.05;5.00;;;;;;;8.19;63.06;98820.06;1671067;85;21477;-73
2022/04/20 08:22:07;;;;;;;6.58;4.65;;;;;;;8.22;63.18;98815.88;1665988;85;21132;-73
2022/04/20 08:24:38;;;;;;;7.12;4.70;;;;;;;8.26;63.16;98820.41;1670965;85;21497;-73
2022/04/20 08:27:05;;;;;;;8.20;4.92;;;;;;;8.32;63.25;98825.73;1670957;85;21138;-73
2022/04/20 08:29:33;;;;;;;12.15;5.12;;;;;;;8.42;63.14;98821.86;1670882;85;21057;-71
2022/04/20 08:32:05;;;;;;;7.12;5.45;;;;;;;8.44;63.11;98819.05;1667229;85;21009;-71
2022/04/20 08:34:31;;;;;;;7.40;4.67;;;;;;;8.54;63.26;98819.28;1683472;84;21168;-74
2022/04/20 08:37:03;;;;;;;6.03;4.60;;;;;;;8.63;62.50;98820.69;1704303;83;21036;-73
2022/04/20 08:39:31;;;;;;;6.70;4.95;;;;;;;8.65;62.21;98819.78;1704918;84;21001;-74
2022/04/20 08:41:58;;;;;;;5.42;3.98;;;;;;;8.67;61.74;98824.94;1705233;84;21039;-73
2022/04/20 08:44:27;;;;;;;7.05;4.83;;;;;;;8.63;61.94;98820.10;1684143;83;21065;-71
2022/04/20 08:46:57;;;;;;;7.03;4.42;;;;;;;8.65;62.04;98821.15;1701694;82;21855;-73
2022/04/20 08:49:25;;;;;;;6.95;4.22;;;;;;;8.71;62.32;98808.88;1669442;84;21092;-71
2022/04/20 08:54:42;;;;;;;6.92;4.30;;;;;;;8.87;61.43;98815.25;1706339;82;21057;-74
2022/04/20 08:57:18;;;;;;;5.22;3.75;;;;;;;8.96;61.16;98820.15;1701578;82;21668;-73
2022/04/20 08:59:49;;;;;;;6.20;3.87;;;;;;;8.98;60.92;98817.07;1706423;82;21834;-73
2022/04/20 09:02:19;;;;;;;4.40;4.00;;;;;;;8.99;60.74;98820.86;1701546;84;21553;-72
2022/04/20 09:04:50;;;;;;;4.67;3.83;;;;;;;9.01;60.44;98824.66;1703476;82;21062;-71
2022/04/20 09:07:18;;;;;;;5.53;3.85;;;;;;;9.04;60.68;98827.34;1701789;82;21547;-71
2022/04/20 09:10:32;;;;;;;5.30;3.60;;;;;;;9.01;59.97;98827.41;1702336;82;21002;-73
2022/04/20 09:13:36;;;;;;;4.97;3.60;;;;;;;8.96;60.17;98831.70;1705340;82;20993;-73
2022/04/20 09:16:09;;;;;;;4.80;3.42;;;;;;;8.89;60.40;98830.27;1706639;82;21111;-74
2022/04/20 09:18:40;;;;;;;5.85;3.17;;;;;;;8.92;60.36;98827.45;1706694;82;21035;-74
2022/04/20 09:21:12;;;;;;;4.37;3.33;;;;;;;8.87;59.90;98831.14;1708300;82;21527;-75
2022/04/20 09:23:47;;;;;;;5.22;3.70;;;;;;;8.86;60.23;98830.10;1707509;82;26835;-75
2022/04/20 09:26:23;;;;;;;8.25;3.83;;;;;;;8.93;60.31;98838.66;1703289;82;21029;-72
2022/04/20 09:29:05;;;;;;;5.42;4.17;;;;;;;8.97;60.09;98837.45;1704343;83;21508;-73
2022/04/20 09:31:49;;;;;;;4.72;3.83;;;;;;;8.96;59.57;98833.07;1705002;84;21016;-74
2022/04/20 09:34:35;;;;;;;6.15;4.08;;;;;;;8.95;59.63;98828.16;1696268;82;21052;-76
2022/04/20 09:37:12;;;;;;;4.87;3.75;;;;;;;9.04;59.89;98825.38;1702328;82;21075;-73
2022/04/20 09:39:46;;;;;;;5.53;3.98;;;;;;;9.13;59.73;98829.48;1702431;82;21072;-76
2022/04/20 09:42:25;;;;;;;4.97;3.67;;;;;;;9.21;59.54;98830.61;1700506;82;21008;-73
2022/04/20 09:45:05;;;;;;;5.60;3.55;;;;;;;9.25;59.41;98833.74;1685648;82;21031;-72
2022/04/20 09:50:30;;;;;;;5.33;3.37;;;;;;;9.30;58.85;98841.59;1706558;82;21262;-72
2022/04/20 09:53:00;;;;;;;5.05;3.25;;;;;;;9.23;59.26;98841.50;1711696;82;21044;-75
2022/04/20 09:55:35;;;;;;;4.92;3.40;;;;;;;9.24;58.81;98839.02;1706611;82;21063;-76
2022/04/20 09:58:24;;;;;;;5.78;3.67;;;;;;;9.22;59.07;98835.78;1671400;84;21500;-75
2022/04/20 10:00:53;;;;;;;6.92;4.10;;;;;;;9.17;58.80;98838.70;1705091;82;21042;-76
2022/04/20 10:03:34;;;;;;;5.03;3.37;;;;;;;9.18;59.15;98834.80;1706881;82;21143;-74
2022/04/20 10:06:08;;;;;;;6.83;3.85;;;;;;;9.17;58.53;98840.08;1712424;82;21079;-74
2022/04/20 10:08:36;;;;;;;9.28;4.75;;;;;;;9.06;58.99;98834.70;1703534;82;21513;-74
2022/04/20 10:11:09;;;;;;;6.83;4.83;;;;;;;9.08;59.31;98835.15;1701107;83;21030;-72
2022/04/20 10:13:39;;;;;;;7.00;3.98;;;;;;;9.15;59.19;98836.84;1659671;82;21505;-74
2022/04/20 10:16:12;;;;;;;9.05;4.28;;;;;;;9.24;59.16;98838.20;1705478;82;21088;-73
2022/04/20 10:18:45;;;;;;;6.65;4.00;;;;;;;9.31;59.29;98836.31;1708038;82;21334;-75
2022/04/20 10:21:15;;;;;;;6.17;3.90;;;;;;;9.37;58.78;98837.74;1642094;85;21052;-73
2022/04/20 10:23:49;;;;;;;9.13;4.60;;;;;;;9.32;58.93;98833.23;1630808;85;22314;-74
2022/04/20 10:26:17;;;;;;;7.15;4.95;;;;;;;9.36;59.01;98845.20;1629686;85;21074;-72
2022/04/20 10:29:05;;;;;;;5.53;3.72;;;;;;;9.44;58.84;98845.48;1637997;86;21073;-71
2022/04/20 10:31:44;;;;;;;7.23;4.07;;;;;;;9.47;58.52;98844.27;1645740;85;21628;-76
2022/04/20 10:38:31;;;;;;;5.87;4.33;;;;;;;9.59;57.92;98847.69;1650010;86;21129;-76
2022/04/20 10:41:17;;;;;;;7.50;5.13;;;;;;;9.58;57.59;98853.52;1650268;85;21597;-73
2022/04/20 10:43:46;;;;;;;7.30;4.47;;;;;;;9.59;57.57;98853.20;1705684;82;21199;-73
2022/04/20 10:46:20;;;;;;;6.92;4.83;;;;;;;9.59;57.78;98860.07;1712646;82;21075;-74
2022/04/20 10:48:57;;;;;;;6.42;4.60;;;;;;;9.53;57.49;98853.14;1708183;82;21345;-71
2022/04/20 10:51:48;;;;;;;7.42;4.00;;;;;;;9.54;57.56;98854.75;1713152;82;21104;-74
2022/04/20 10:54:27;;;;;;;6.55;4.28;;;;;;;9.57;57.62;98860.17;1708083;82;21316;-73
2022/04/20 10:57:06;;;;;;;5.53;3.70;;;;;;;9.63;57.92;98861.59;1708795;82;20994;-72
2022/04/20 10:59:33;;;;;;;6.75;4.60;;;;;;;9.67;57.76;98861.75;1705085;82;21115;-71
2022/04/20 11:02:07;;;;;;;4.78;3.80;;;;;;;9.68;57.85;98857.29;1713555;82;21012;-72
2022/04/20 11:04:47;;;;;;;6.25;4.30;;;;;;;9.68;57.81;98864.17;1702260;82;21060;-73
2022/04/20 11:07:23;;;;;;;8.58;4.70;;;;;;;9.71;57.54;98871.75;1704405;82;40809;-71
2022/04/20 11:10:06;;;;;;;5.62;4.17;;;;;;;9.69;57.68;98858.89;1701141;82;21079;-74
2022/04/20 11:18:39;;;;;;;6.87;4.08;;;;;;;9.68;57.63;98862.79;1707609;82;21568;-74
2022/04/20 11:21:26;;;;;;;6.85;4.20;;;;;;;9.76;58.12;98854.84;1614522;87;21038;-73
2022/04/20 11:24:07;;;;;;;5.70;3.92;;;;;;;9.82;57.78;98843.31;1618063;87;21120;-72
2022/04/20 11:26:44;;;;;;;8.45;4.25;;;;;;;9.94;57.39;98846.73;1657428;84;21123;-72
2022/04/20 11:29:16;;;;;;;8.48;5.22;;;;;;;10.03;57.18;98850.79;1707567;82;21012;-74
2022/04/20 11:32:00;;;;;;;7.62;4.72;;;;;;;10.13;57.09;98849.62;1704603;83;21016;-71
2022/04/20 11:34:39;;;;;;;7.53;4.80;;;;;;;10.17;56.59;98848.36;1702681;83;21606;-74
2022/04/20 11:37:07;;;;;;;7.35;5.00;;;;;;;10.18;56.37;98842.55;1704532;84;21040;-72
2022/04/20 11:39:41;;;;;;;7.78;4.95;;;;;;;10.22;56.14;98844.03;1701886;84;21104;-74
2022/04/20 11:42:10;;;;;;;;;;;;;;;10.21;56.12;98833.61;1704956;82;21063;-73
2022/04/20 11:44:40;;;;;;;7.62;4.53;;;;;;;10.27;55.99;98838.92;1697924;84;20437;-69
2022/04/20 11:47:21;;;;;;;6.78;4.75;;;;;;;10.29;55.83;98834.68;1696799;84;21039;-74
2022/04/20 11:49:50;;;;;;;7.00;4.37;;;;;;;10.36;55.85;98831.39;1703395;84;21087;-74
2022/04/20 11:52:27;;;;;;;5.80;4.92;;;;;;;10.41;55.48;98828.44;1701681;82;27408;-74
2022/04/20 11:55:18;;;;;;;7.78;4.87;;;;;;;10.37;55.35;98818.44;1662307;82;21044;-75
2022/04/20 11:57:49;;;;;;;9.80;4.67;;;;;;;10.35;55.67;98811.89;1693412;82;21489;-76
2022/04/20 12:00:24;;;;;;;7.62;4.85;;;;;;;10.35;55.20;98809.14;1707606;82;21497;-75
2022/04/20 12:02:50;;;;;;;6.37;4.37;;;;;;;10.34;55.31;98802.00;1705047;82;21091;-75
2022/04/20 12:05:18;;;;;;;6.22;4.58;;;;;;;10.35;55.03;98803.04;1708276;82;21157;-72
2022/04/20 12:07:49;;;;;;;7.40;4.65;;;;;;;10.36;55.24;98791.46;1624767;82;21028;-72
2022/04/20 12:10:26;;;;;;;9.75;5.12;;;;;;;10.36;55.49;98781.83;1677155;82;21539;-74
2022/04/20 12:12:55;;;;;;;7.47;4.83;;;;;;;10.40;55.77;98778.64;1703586;82;21043;-74
2022/04/20 12:15:22;;;;;;;7.30;4.70;;;;;;;10.48;55.57;98781.11;1703371;82;21090;-76
2022/04/20 12:17:56;;;;;;;5.97;4.28;;;;;;;10.54;55.39;98785.25;1649062;85;21101;-77
2022/04/20 12:20:25;;;;;;;10.78;5.87;;;;;;;10.54;55.02;98778.96;1648473;85;21591;-75
2022/04/20 12:23:06;;;;;;;8.93;5.03;;;;;;;10.61;55.27;98779.20;1652520;85;21073;-73
2022/04/20 12:25:40;;;;;;;6.80;4.45;;;;;;;10.64;54.63;98777.17;1653097;85;21082;-76
2022/04/20 12:28:55;;;;;;;5.55;4.08;;;;;;;10.59;54.99;98775.41;1651488;85;21056;-74
2022/04/20 12:30:45;;;;;;;8.85;4.67;;;;;;;10.58;54.29;98769.67;1636296;85;21054;-74
2022/04/20 12:33:22;;;;;;;6.85;4.67;;;;;;;10.56;54.85;98768.42;1652990;85;21120;-74
2022/04/20 12:36:03;;;;;;;8.83;5.10;;;;;;;10.60;54.57;98772.09;1650505;85;21078;-74
2022/04/20 12:38:50;;;;;;;8.98;5.20;;;;;;;10.63;54.69;98775.54;1649002;85;21089;-70
2022/04/20 12:41:41;;;;;;;6.87;4.60;;;;;;;10.72;54.75;98774.08;1654616;85;21534;-71
2022/04/20 12:44:36;;;;;;;8.15;4.78;;;;;;;10.75;54.38;98770.64;1661509;84;21189;-77